Time;durP1;ratioP1;P1;durP2;ratioP2;P2;SDS_P1;SDS_P2;PMS_P1;PMS_P2;Temp;Humidity;BMP_temperature;BMP_pressure;BME280_temperature;BME280_humidity;BME280_pressure;Samples;Min_cycle;Max_cycle;Signal;HPM_P1;HPM_P2
2022/02/24 00:00:12;;;;;;;4.00;2.15;;;;;;;2.82;75.86;98978.06;4201912;28;20482;-73
2022/02/24 00:02:12;;;;;;;9.00;2.35;;;;;;;2.88;75.77;98978.72;4201957;28;20040;-73
2022/02/24 00:04:13;;;;;;;8.27;2.10;;;;;;;2.86;76.30;98980.97;4201711;28;20024;-73
2022/02/24 00:06:15;;;;;;;4.65;2.25;;;;;;;2.81;75.97;98971.78;4186999;28;20029;-73
2022/02/24 00:08:15;;;;;;;56.03;21.27;;;;;;;2.83;75.64;98963.28;4186019;28;20025;-73
2022/02/24 00:10:17;;;;;;;9.70;4.40;;;;;;;2.88;75.98;98971.31;4187860;28;20661;-73
2022/02/24 00:12:17;;;;;;;8.15;3.53;;;;;;;2.83;76.02;98959.75;4201209;28;20900;-73
2022/02/24 00:14:18;;;;;;;19.80;5.38;;;;;;;2.73;76.06;98958.91;4201508;28;20039;-73
2022/02/24 00:16:18;;;;;;;9.70;3.78;;;;;;;2.68;76.20;98952.75;4201866;28;20098;-73
2022/02/24 00:18:18;;;;;;;6.80;3.55;;;;;;;2.66;77.10;98963.19;4201023;28;20040;-73
2022/02/24 00:20:19;;;;;;;5.60;2.35;;;;;;;2.57;77.02;98954.97;4193794;28;20468;-73
2022/02/24 00:22:19;;;;;;;5.20;2.58;;;;;;;2.47;76.88;98961.47;4186655;28;20028;-73
2022/02/24 00:24:19;;;;;;;5.32;2.78;;;;;;;2.40;77.31;98954.84;4186302;28;20707;-73
2022/02/24 00:26:19;;;;;;;7.97;3.58;;;;;;;2.38;77.86;98948.88;4193959;28;20176;-73
2022/02/24 00:28:20;;;;;;;5.75;2.65;;;;;;;2.35;77.73;98955.78;4197331;28;20048;-73
2022/02/24 00:30:20;;;;;;;5.65;2.58;;;;;;;2.28;78.12;98955.41;4186191;28;20060;-73
2022/02/24 00:32:20;;;;;;;3.80;2.20;;;;;;;2.21;78.18;98955.84;4186491;28;20045;-73
2022/02/24 00:34:23;;;;;;;4.07;2.40;;;;;;;2.15;78.19;98956.28;4191215;28;20101;-73
2022/02/24 00:36:23;;;;;;;7.35;3.55;;;;;;;2.11;78.75;98950.66;4202284;28;20122;-73
2022/02/24 00:38:23;;;;;;;7.93;3.45;;;;;;;2.02;78.74;98946.25;4199235;28;20450;-73
2022/02/24 00:40:23;;;;;;;8.30;2.70;;;;;;;2.01;78.86;98950.09;4186251;28;20040;-73
2022/02/24 00:42:24;;;;;;;5.53;2.10;;;;;;;1.97;78.71;98939.78;4186589;28;20048;-73
2022/02/24 00:44:24;;;;;;;10.38;2.53;;;;;;;1.92;79.03;98939.94;4190353;28;20040;-73
2022/02/24 00:46:25;;;;;;;4.40;1.90;;;;;;;1.89;79.41;98929.63;4200316;28;20051;-73
2022/02/24 00:48:25;;;;;;;4.85;2.00;;;;;;;1.89;78.76;98937.81;4200376;28;20464;-73
2022/02/24 00:50:25;;;;;;;7.00;1.90;;;;;;;1.86;79.18;98943.09;4196224;28;20047;-73
2022/02/24 00:52:26;;;;;;;5.20;2.00;;;;;;;1.84;79.35;98937.13;4190603;28;20036;-72
2022/02/24 00:54:26;;;;;;;4.88;1.80;;;;;;;1.77;79.33;98929.38;4186195;28;20041;-73
2022/02/24 00:56:27;;;;;;;2.47;1.60;;;;;;;1.76;79.85;98935.16;4186109;28;20135;-73
2022/02/24 00:58:27;;;;;;;4.32;2.50;;;;;;;1.75;79.58;98930.81;4185754;28;20068;-73
2022/02/24 01:00:28;;;;;;;4.63;2.13;;;;;;;1.74;79.67;98929.16;4186119;28;20052;-73
2022/02/24 01:02:28;;;;;;;4.20;1.80;;;;;;;1.71;79.70;98916.16;4191300;28;20048;-73
2022/02/24 01:04:28;;;;;;;5.53;2.08;;;;;;;1.72;80.09;98921.31;4196591;28;20048;-73
2022/02/24 01:06:29;;;;;;;3.28;2.00;;;;;;;1.69;80.39;98921.94;4185385;28;20127;-73
2022/02/24 01:08:29;;;;;;;5.75;1.95;;;;;;;1.72;79.87;98904.13;4196042;28;21310;-73
2022/02/24 01:10:29;;;;;;;4.38;2.95;;;;;;;1.72;80.31;98893.22;4193832;28;20085;-73
2022/02/24 01:12:29;;;;;;;3.78;1.70;;;;;;;1.77;80.34;98896.63;4184575;28;20032;-73
2022/02/24 01:14:30;;;;;;;5.43;2.53;;;;;;;1.84;81.07;98883.38;4186141;28;20040;-73
2022/02/24 01:16:30;;;;;;;2.78;1.80;;;;;;;1.87;80.92;98874.56;4185604;28;20530;-73
2022/02/24 01:18:30;;;;;;;11.00;2.08;;;;;;;1.99;80.74;98879.47;4199813;28;20436;-73
2022/02/24 01:20:31;;;;;;;2.00;1.60;;;;;;;2.17;80.39;98869.44;4193036;28;20044;-73
2022/02/24 01:22:31;;;;;;;3.65;1.88;;;;;;;2.33;78.96;98872.56;4186138;28;20562;-73
2022/02/24 01:24:32;;;;;;;5.88;2.03;;;;;;;2.49;79.19;98868.31;4187196;28;20947;-73
2022/02/24 01:26:32;;;;;;;4.40;1.95;;;;;;;2.51;78.81;98868.78;4199841;28;20119;-73
2022/02/24 01:28:32;;;;;;;4.80;2.17;;;;;;;2.57;78.33;98855.81;4191872;28;20060;-72
2022/02/24 01:30:33;;;;;;;5.50;2.03;;;;;;;2.54;77.80;98858.03;4186475;28;20109;-73
2022/02/24 01:32:33;;;;;;;4.45;2.17;;;;;;;2.59;78.05;98850.84;4193261;28;20089;-73
2022/02/24 01:34:33;;;;;;;9.15;2.20;;;;;;;2.53;78.26;98845.50;4186305;28;20064;-73
2022/02/24 01:36:34;;;;;;;4.18;1.83;;;;;;;2.52;78.42;98849.34;4184797;28;20045;-72
2022/02/24 01:38:34;;;;;;;3.95;1.73;;;;;;;2.46;78.71;98847.06;4188316;28;20746;-73
2022/02/24 01:40:35;;;;;;;4.05;1.83;;;;;;;2.39;78.81;98833.88;4197129;28;20099;-72
2022/02/24 01:42:35;;;;;;;4.93;1.95;;;;;;;2.33;78.88;98834.34;4191849;28;20048;-73
2022/02/24 01:44:41;;;;;;;3.83;1.60;;;;;;;2.27;78.51;98835.59;4188746;28;20378;-73
2022/02/24 01:46:42;;;;;;;3.85;2.03;;;;;;;2.21;78.71;98818.53;4187672;28;20298;-73
2022/02/24 01:48:43;;;;;;;3.38;1.92;;;;;;;2.20;80.07;98814.22;4188928;28;20032;-73
2022/02/24 01:50:43;;;;;;;3.50;1.83;;;;;;;2.18;79.31;98813.72;4188657;28;20127;-73
2022/02/24 01:52:44;;;;;;;9.00;2.90;;;;;;;2.12;79.64;98804.84;4198527;28;20393;-73
2022/02/24 01:54:46;;;;;;;7.07;1.98;;;;;;;2.07;79.78;98801.44;4203395;28;20040;-73
2022/02/24 01:56:46;;;;;;;7.88;2.40;;;;;;;2.03;80.02;98808.66;4190289;28;20040;-73
2022/02/24 01:58:48;;;;;;;5.03;2.00;;;;;;;1.98;80.35;98798.69;4188484;28;20037;-73
2022/02/24 02:00:50;;;;;;;5.00;1.80;;;;;;;1.95;80.17;98786.47;4188828;28;20516;-73
2022/02/24 02:02:50;;;;;;;2.95;1.88;;;;;;;1.94;79.91;98786.78;4193518;28;20349;-73
2022/02/24 02:04:51;;;;;;;5.97;2.15;;;;;;;1.90;80.00;98792.09;4202948;28;20059;-73
2022/02/24 02:06:53;;;;;;;5.60;2.00;;;;;;;1.86;80.09;98779.38;4202900;28;20032;-73
2022/02/24 02:08:53;;;;;;;6.20;2.40;;;;;;;1.85;80.52;98778.56;4202594;28;20036;-73
2022/02/24 02:10:53;;;;;;;3.75;2.03;;;;;;;1.86;80.62;98782.09;4192888;28;20528;-73
2022/02/24 02:12:54;;;;;;;6.03;1.90;;;;;;;1.88;80.27;98790.78;4188411;28;20480;-73
2022/02/24 02:14:54;;;;;;;6.78;1.75;;;;;;;1.90;80.55;98791.25;4188468;28;20051;-73
2022/02/24 02:16:56;;;;;;;5.30;2.65;;;;;;;1.93;80.59;98779.72;4198762;28;20085;-73
2022/02/24 02:18:56;;;;;;;3.30;1.80;;;;;;;1.93;80.08;98769.63;4202994;28;20086;-73
2022/02/24 02:20:56;;;;;;;6.75;2.10;;;;;;;1.99;80.26;98775.75;4203677;28;20404;-73
2022/02/24 02:22:57;;;;;;;6.70;2.13;;;;;;;2.02;80.67;98771.59;4203034;28;20036;-73
2022/02/24 02:24:59;;;;;;;4.25;2.22;;;;;;;2.22;81.54;98768.28;4203976;28;20043;-73
2022/02/24 02:27:00;;;;;;;3.42;1.85;;;;;;;2.28;80.52;98766.22;4192070;28;20045;-73
2022/02/24 02:29:02;;;;;;;3.13;2.15;;;;;;;2.36;80.30;98758.06;4188228;28;20050;-73
2022/02/24 02:31:03;;;;;;;6.78;2.30;;;;;;;2.44;80.25;98759.19;4188162;28;20375;-73
2022/02/24 02:33:03;;;;;;;2.88;2.00;;;;;;;2.47;79.38;98750.34;4189526;28;20040;-73
2022/02/24 02:35:04;;;;;;;2.85;2.05;;;;;;;2.46;79.50;98751.50;4202545;28;20044;-73
2022/02/24 02:37:04;;;;;;;3.97;1.98;;;;;;;2.48;79.26;98750.06;4189295;28;20041;-73
2022/02/24 02:39:06;;;;;;;5.32;2.15;;;;;;;2.50;79.58;98753.28;4188296;28;20037;-73
2022/02/24 02:41:06;;;;;;;3.45;2.00;;;;;;;2.59;79.73;98747.84;4188337;28;20544;-73
2022/02/24 02:43:10;;;;;;;3.70;1.80;;;;;;;2.65;79.16;98732.91;4187694;28;20451;-73
2022/02/24 02:45:11;;;;;;;2.75;1.83;;;;;;;2.74;79.03;98727.44;4188220;28;20045;-73
2022/02/24 02:47:11;;;;;;;4.60;2.50;;;;;;;2.82;78.83;98729.38;4187339;28;20045;-73
2022/02/24 02:49:11;;;;;;;12.27;2.67;;;;;;;2.83;78.49;98739.19;4187993;28;20044;-73
2022/02/24 02:51:12;;;;;;;4.45;2.03;;;;;;;2.79;78.47;98730.81;4187590;28;20438;-73
2022/02/24 02:53:12;;;;;;;2.88;1.88;;;;;;;2.74;78.65;98728.25;4187471;28;20687;-73
2022/02/24 02:55:13;;;;;;;5.07;2.42;;;;;;;2.72;79.02;98725.00;4196937;28;20135;-73
2022/02/24 02:57:13;;;;;;;7.68;2.03;;;;;;;2.70;78.80;98721.00;4191457;28;20400;-73
2022/02/24 02:59:15;;;;;;;6.85;2.70;;;;;;;2.74;79.21;98724.72;4187610;28;20028;-73
2022/02/24 03:01:15;;;;;;;4.05;2.13;;;;;;;2.67;79.63;98714.25;4187862;28;20351;-73
2022/02/24 03:03:16;;;;;;;3.83;2.22;;;;;;;2.65;79.51;98711.06;4187410;28;20044;-73
2022/02/24 03:05:16;;;;;;;2.83;2.00;;;;;;;2.61;79.44;98706.53;4195827;28;20044;-73
2022/02/24 03:07:17;;;;;;;6.32;2.00;;;;;;;2.58;79.72;98702.53;4202734;28;20145;-73
2022/02/24 03:09:18;;;;;;;3.08;1.95;;;;;;;2.55;79.48;98694.94;4202387;28;20622;-73
2022/02/24 03:11:18;;;;;;;4.38;1.80;;;;;;;2.56;79.47;98704.75;4189252;28;20090;-73
2022/02/24 03:13:19;;;;;;;6.75;2.30;;;;;;;2.57;79.64;98683.72;4203439;28;20058;-73
2022/02/24 03:15:20;;;;;;;5.95;2.40;;;;;;;2.56;80.14;98687.56;4194882;28;20045;-73
2022/02/24 03:17:22;;;;;;;3.92;1.98;;;;;;;2.58;80.16;98682.59;4186194;28;20063;-73
2022/02/24 03:19:22;;;;;;;10.53;2.13;;;;;;;2.60;80.02;98683.88;4187402;28;20101;-73
2022/02/24 03:21:22;;;;;;;3.92;2.10;;;;;;;2.62;80.16;98680.81;4187851;28;20044;-73
2022/02/24 03:23:23;;;;;;;4.20;1.95;;;;;;;2.63;79.75;98669.56;4187623;28;20040;-73
2022/02/24 03:25:23;;;;;;;4.35;1.98;;;;;;;2.67;80.24;98667.00;4197169;28;20157;-72
2022/02/24 03:27:23;;;;;;;8.57;2.20;;;;;;;2.71;80.27;98666.03;4196216;28;20052;-73
2022/02/24 03:29:24;;;;;;;4.38;2.00;;;;;;;2.85;79.87;98667.81;4193616;28;20040;-73
2022/02/24 03:31:24;;;;;;;6.07;1.88;;;;;;;2.89;79.31;98666.03;4186423;28;20835;-73
2022/02/24 03:33:24;;;;;;;6.40;2.38;;;;;;;2.88;79.40;98659.75;4187276;28;20048;-73
2022/02/24 03:35:25;;;;;;;8.20;2.65;;;;;;;2.93;79.18;98650.59;4187404;28;20304;-73
2022/02/24 03:37:25;;;;;;;5.90;2.40;;;;;;;2.95;79.13;98648.34;4186322;28;20080;-73
2022/02/24 03:39:26;;;;;;;3.30;2.05;;;;;;;3.00;78.95;98651.72;4201121;28;20051;-73
2022/02/24 03:41:26;;;;;;;6.60;2.30;;;;;;;3.01;79.27;98655.25;4187686;28;20409;-73
2022/02/24 03:43:26;;;;;;;3.85;2.10;;;;;;;3.09;79.03;98652.50;4187286;28;20040;-73
2022/02/24 03:45:27;;;;;;;4.82;2.35;;;;;;;3.14;78.71;98650.72;4186939;28;20055;-73
2022/02/24 03:47:27;;;;;;;5.47;2.05;;;;;;;3.16;79.15;98648.47;4186335;28;20574;-73
2022/02/24 03:49:28;;;;;;;5.93;2.45;;;;;;;3.22;79.05;98649.88;4193127;28;20227;-73
2022/02/24 03:51:28;;;;;;;5.03;2.58;;;;;;;3.19;79.85;98648.63;4186785;28;20376;-73
2022/02/24 03:53:28;;;;;;;3.97;1.88;;;;;;;3.27;78.55;98639.59;4186532;28;20052;-73
2022/02/24 03:55:29;;;;;;;4.28;2.10;;;;;;;3.31;79.37;98637.00;4194230;28;20487;-73
2022/02/24 03:57:29;;;;;;;4.65;2.65;;;;;;;3.40;79.06;98646.00;4200498;28;20079;-73
2022/02/24 03:59:29;;;;;;;5.30;2.35;;;;;;;3.38;79.21;98629.91;4202302;28;20067;-73
2022/02/24 04:01:30;;;;;;;6.15;2.35;;;;;;;3.44;78.96;98636.00;4193869;28;20570;-72
2022/02/24 04:03:30;;;;;;;4.97;2.60;;;;;;;3.47;79.50;98635.34;4187174;28;20049;-73
2022/02/24 04:05:30;;;;;;;3.13;2.00;;;;;;;3.52;79.50;98629.69;4193085;28;20159;-73
2022/02/24 04:07:30;;;;;;;6.35;2.33;;;;;;;3.54;78.77;98637.56;4185700;28;20055;-73
2022/02/24 04:09:31;;;;;;;4.40;2.33;;;;;;;3.51;77.83;98624.56;4187051;28;20372;-73
2022/02/24 04:11:32;;;;;;;5.90;2.22;;;;;;;3.56;78.05;98624.38;4187647;28;20511;-73
2022/02/24 04:13:32;;;;;;;5.05;2.40;;;;;;;3.59;78.30;98615.50;4190118;28;20051;-73
2022/02/24 04:15:33;;;;;;;3.15;2.22;;;;;;;3.56;78.08;98624.38;4186105;28;20141;-73
2022/02/24 04:17:33;;;;;;;5.38;2.67;;;;;;;3.56;78.89;98613.44;4186467;28;20036;-73
2022/02/24 04:19:33;;;;;;;4.82;2.28;;;;;;;3.57;78.46;98626.00;4192458;28;20033;-73
2022/02/24 04:21:35;;;;;;;3.42;2.22;;;;;;;3.63;78.40;98617.25;4191210;28;20492;-73
2022/02/24 04:23:35;;;;;;;6.35;2.47;;;;;;;3.68;77.76;98608.06;4188591;28;20484;-73
2022/02/24 04:25:36;;;;;;;3.88;2.40;;;;;;;3.66;77.64;98611.13;4191632;28;20059;-73
2022/02/24 04:27:36;;;;;;;5.07;2.38;;;;;;;3.63;77.53;98609.03;4188626;28;20063;-73
2022/02/24 04:29:37;;;;;;;4.55;2.35;;;;;;;3.60;78.83;98606.16;4188700;28;20044;-73
2022/02/24 04:31:37;;;;;;;4.97;2.65;;;;;;;3.60;78.33;98606.16;4190143;28;20093;-73
2022/02/24 04:33:39;;;;;;;4.30;2.30;;;;;;;3.56;78.99;98605.25;4189766;28;20078;-73
2022/02/24 04:35:40;;;;;;;4.57;2.60;;;;;;;3.52;78.60;98602.34;4190939;28;20138;-73
2022/02/24 04:37:40;;;;;;;5.15;2.50;;;;;;;3.53;78.53;98605.88;4190819;28;20961;-73
2022/02/24 04:39:41;;;;;;;5.78;2.80;;;;;;;3.49;78.93;98603.00;4185627;28;20585;-73
2022/02/24 04:41:41;;;;;;;6.95;2.58;;;;;;;3.48;79.48;98606.06;4192065;28;20469;-73
2022/02/24 04:43:41;;;;;;;6.07;2.50;;;;;;;3.45;79.13;98603.97;4187429;28;20051;-73
2022/02/24 04:45:42;;;;;;;3.47;2.38;;;;;;;3.49;78.71;98603.00;4189161;28;20044;-73
2022/02/24 04:47:42;;;;;;;4.18;2.38;;;;;;;3.47;78.72;98604.44;4190768;28;20060;-73
2022/02/24 04:49:43;;;;;;;4.90;2.38;;;;;;;3.47;78.68;98598.97;4191535;28;20056;-73
2022/02/24 04:51:43;;;;;;;4.30;2.58;;;;;;;3.42;79.13;98593.72;4186892;28;20106;-73
2022/02/24 04:53:43;;;;;;;5.95;2.80;;;;;;;3.43;78.73;98600.78;4190380;28;20139;-73
2022/02/24 04:55:44;;;;;;;5.57;2.63;;;;;;;3.40;79.24;98591.31;4188461;28;20036;-73
2022/02/24 04:57:44;;;;;;;6.20;2.20;;;;;;;3.38;79.25;98588.06;4186875;28;20507;-73
2022/02/24 04:59:44;;;;;;;5.00;2.47;;;;;;;3.40;78.90;98590.50;4186745;28;20067;-73
2022/02/24 05:01:45;;;;;;;3.88;2.30;;;;;;;3.36;79.16;98590.34;4190011;28;20510;-73
2022/02/24 05:03:45;;;;;;;6.15;2.90;;;;;;;3.32;80.00;98579.25;4189727;28;20053;-73
2022/02/24 05:05:45;;;;;;;4.05;2.67;;;;;;;3.31;79.46;98583.13;4190843;28;20131;-73
2022/02/24 05:07:46;;;;;;;3.42;2.33;;;;;;;3.25;80.18;98572.69;4188966;28;20072;-73
2022/02/24 05:09:46;;;;;;;7.45;3.25;;;;;;;3.24;80.57;98571.91;4192143;28;20086;-73
2022/02/24 05:11:46;;;;;;;5.68;2.90;;;;;;;3.15;80.77;98579.31;4191092;28;20079;-73
2022/02/24 05:13:47;;;;;;;7.32;4.38;;;;;;;3.12;81.38;98570.97;4187361;28;20118;-73
2022/02/24 05:15:49;;;;;;;8.50;3.83;;;;;;;3.04;81.31;98570.66;4189954;28;20094;-73
2022/02/24 05:17:49;;;;;;;8.75;4.90;;;;;;;2.99;80.85;98564.59;4185592;28;20039;-73
2022/02/24 05:19:50;;;;;;;10.60;6.03;;;;;;;2.92;81.43;98573.28;4189800;28;20419;-73
2022/02/24 05:21:50;;;;;;;11.02;5.70;;;;;;;2.89;82.37;98568.44;4195421;28;20418;-73
2022/02/24 05:23:51;;;;;;;8.10;4.68;;;;;;;2.90;82.16;98564.59;4188990;28;20051;-73
2022/02/24 05:25:51;;;;;;;7.68;4.32;;;;;;;2.88;81.66;98557.84;4199802;28;20338;-73
2022/02/24 05:27:51;;;;;;;13.20;7.18;;;;;;;2.93;81.62;98557.69;4191321;28;20068;-73
2022/02/24 05:29:52;;;;;;;9.02;5.53;;;;;;;2.91;81.87;98547.06;4196416;28;20080;-73
2022/02/24 05:31:52;;;;;;;7.68;4.88;;;;;;;2.88;81.77;98553.16;4188598;28;20480;-73
2022/02/24 05:33:52;;;;;;;9.73;6.82;;;;;;;2.87;82.46;98542.56;4188825;28;20453;-73
2022/02/24 05:35:53;;;;;;;9.00;5.72;;;;;;;2.87;81.76;98548.03;4195929;28;20044;-73
2022/02/24 05:37:54;;;;;;;9.18;4.70;;;;;;;2.84;82.35;98544.03;4187785;28;20061;-73
2022/02/24 05:39:55;;;;;;;9.80;5.50;;;;;;;2.86;81.75;98543.72;4190046;28;20074;-73
2022/02/24 05:41:55;;;;;;;12.30;5.13;;;;;;;2.83;82.34;98539.69;4188507;28;20049;-73
2022/02/24 05:43:55;;;;;;;11.27;5.75;;;;;;;2.80;82.47;98534.88;4188961;28;20377;-73
2022/02/24 05:45:57;;;;;;;12.68;6.45;;;;;;;2.79;82.67;98536.00;4188576;28;20071;-73
2022/02/24 05:47:57;;;;;;;14.73;6.78;;;;;;;2.77;82.58;98530.06;4181176;28;20570;-73
2022/02/24 05:49:57;;;;;;;13.27;6.20;;;;;;;2.74;82.49;98523.31;4126222;28;20208;-73
2022/02/24 05:51:57;;;;;;;10.95;6.78;;;;;;;2.73;82.12;98523.63;4188972;28;20123;-73
2022/02/24 05:53:58;;;;;;;11.13;5.78;;;;;;;2.72;81.93;98525.56;4188735;28;20042;-73
2022/02/24 05:55:58;;;;;;;12.60;6.38;;;;;;;2.71;82.15;98523.97;4189052;28;20507;-73
2022/02/24 05:57:59;;;;;;;10.27;6.30;;;;;;;2.71;82.31;98525.91;4187700;28;20391;-73
2022/02/24 05:59:59;;;;;;;12.25;5.72;;;;;;;2.72;81.49;98514.63;4195027;28;20044;-73
2022/02/24 06:01:59;;;;;;;13.85;5.95;;;;;;;2.72;81.79;98517.38;4196462;28;20040;-73
2022/02/24 06:04:00;;;;;;;9.07;5.75;;;;;;;2.72;81.54;98509.16;4188316;28;20041;-73
2022/02/24 06:06:00;;;;;;;10.88;4.85;;;;;;;2.74;81.64;98517.06;4188057;28;20094;-73
2022/02/24 06:08:01;;;;;;;8.57;4.85;;;;;;;2.71;82.24;98514.97;4195439;28;20047;-73
2022/02/24 06:10:02;;;;;;;7.80;4.72;;;;;;;2.70;81.67;98507.91;4204099;28;20123;-73
2022/02/24 06:12:03;;;;;;;12.70;4.95;;;;;;;2.69;81.48;98519.97;4202834;28;20173;-73
2022/02/24 06:14:04;;;;;;;10.13;5.30;;;;;;;2.70;81.46;98518.81;4203658;28;20019;-73
2022/02/24 06:16:04;;;;;;;14.07;5.53;;;;;;;2.70;81.48;98524.28;4190318;28;20037;-73
2022/02/24 06:18:07;;;;;;;11.15;5.55;;;;;;;2.68;81.71;98513.69;4186228;28;20549;-73
2022/02/24 06:20:08;;;;;;;10.38;5.45;;;;;;;2.69;81.59;98512.56;4188176;28;20063;-73
2022/02/24 06:22:08;;;;;;;11.00;6.20;;;;;;;2.72;81.21;98511.09;4187712;28;20037;-73
2022/02/24 06:24:08;;;;;;;15.45;6.53;;;;;;;2.76;82.00;98510.13;4188565;28;20035;-73
2022/02/24 06:26:09;;;;;;;12.05;5.72;;;;;;;2.79;81.42;98508.69;4188641;28;20024;-73
2022/02/24 06:28:09;;;;;;;14.63;6.13;;;;;;;2.83;81.05;98511.56;4188288;28;20032;-73
2022/02/24 06:30:10;;;;;;;15.90;6.28;;;;;;;2.90;80.72;98514.63;4187763;28;20044;-73
2022/02/24 06:32:13;;;;;;;15.55;6.65;;;;;;;2.95;81.06;98506.22;4188023;28;20445;-73
2022/02/24 06:34:13;;;;;;;9.48;5.55;;;;;;;3.01;80.75;98511.19;4188108;28;20117;-73
2022/02/24 06:36:13;;;;;;;9.95;4.95;;;;;;;3.10;80.31;98511.94;4187845;28;20310;-73
2022/02/24 06:38:14;;;;;;;7.40;3.40;;;;;;;3.13;79.84;98509.69;4187685;28;20442;-73
2022/02/24 06:40:15;;;;;;;5.47;2.92;;;;;;;3.18;79.61;98498.56;4197285;28;20059;-73
2022/02/24 06:42:15;;;;;;;7.63;3.72;;;;;;;3.25;79.31;98490.66;4203740;28;20380;-73
2022/02/24 06:44:15;;;;;;;5.20;3.45;;;;;;;3.30;79.20;98495.94;4202842;28;20528;-73
2022/02/24 06:46:18;;;;;;;12.15;3.92;;;;;;;3.32;78.61;98494.50;4202116;28;20476;-73
2022/02/24 06:48:18;;;;;;;8.70;3.10;;;;;;;3.32;79.25;98486.28;4202953;28;20113;-73
2022/02/24 06:50:18;;;;;;;5.05;3.13;;;;;;;3.34;78.72;98492.22;4188025;28;20024;-73
2022/02/24 06:52:19;;;;;;;5.28;3.03;;;;;;;3.38;78.63;98492.34;4193471;28;20036;-73
2022/02/24 06:54:19;;;;;;;5.85;2.53;;;;;;;3.41;78.39;98483.50;4195484;28;20184;-73
2022/02/24 06:56:19;;;;;;;4.32;2.70;;;;;;;3.43;78.69;98485.91;4187038;28;20077;-73
2022/02/24 06:58:19;;;;;;;9.18;3.00;;;;;;;3.44;78.48;98485.56;4187144;28;20028;-73
2022/02/24 07:00:21;;;;;;;4.40;2.50;;;;;;;3.45;78.42;98486.34;4187398;28;20213;-73
2022/02/24 07:02:22;;;;;;;4.75;2.47;;;;;;;3.46;78.48;98485.22;4187708;28;20028;-73
2022/02/24 07:04:22;;;;;;;11.27;3.50;;;;;;;3.45;78.56;98470.75;4187976;28;20059;-73
2022/02/24 07:06:22;;;;;;;3.95;2.80;;;;;;;3.47;78.22;98479.41;4187336;28;20055;-73
2022/02/24 07:08:23;;;;;;;6.85;3.50;;;;;;;3.50;78.16;98472.50;4186940;28;20047;-73
2022/02/24 07:10:23;;;;;;;5.82;2.80;;;;;;;3.56;77.81;98474.72;4193361;28;20691;-73
2022/02/24 07:12:23;;;;;;;6.20;2.95;;;;;;;3.56;77.96;98462.97;4202411;28;20119;-73
2022/02/24 07:14:24;;;;;;;3.97;2.30;;;;;;;3.60;77.85;98469.38;4202201;28;20047;-73
2022/02/24 07:16:24;;;;;;;4.80;2.60;;;;;;;3.64;77.47;98478.50;4203099;28;20032;-73
2022/02/24 07:18:24;;;;;;;8.52;2.67;;;;;;;3.71;77.59;98475.25;4201105;28;20476;-73
2022/02/24 07:20:25;;;;;;;3.00;2.15;;;;;;;3.78;77.45;98464.56;4202240;28;20117;-73
2022/02/24 07:22:25;;;;;;;4.75;2.25;;;;;;;3.84;76.82;98466.78;4202834;28;20445;-73
2022/02/24 07:24:25;;;;;;;4.22;2.42;;;;;;;3.87;76.84;98468.84;4201975;28;20771;-73
2022/02/24 07:26:26;;;;;;;5.95;2.40;;;;;;;3.92;76.50;98467.84;4195039;28;20045;-73
2022/02/24 07:28:26;;;;;;;6.45;2.45;;;;;;;3.95;76.46;98457.03;4194225;28;20044;-73
2022/02/24 07:30:26;;;;;;;7.97;2.40;;;;;;;4.04;75.47;98465.16;4202399;28;20251;-73
2022/02/24 07:32:27;;;;;;;6.47;2.42;;;;;;;4.12;75.58;98463.50;4201088;28;20047;-73
2022/02/24 07:34:27;;;;;;;4.35;2.67;;;;;;;4.18;75.58;98454.75;4187256;28;20053;-73
2022/02/24 07:36:27;;;;;;;4.13;2.33;;;;;;;4.21;75.51;98458.72;4186691;28;20063;-73
2022/02/24 07:38:28;;;;;;;6.70;2.70;;;;;;;4.22;75.30;98461.16;4186371;28;20119;-73
2022/02/24 07:40:28;;;;;;;3.55;2.00;;;;;;;4.28;75.28;98459.00;4186212;28;20036;-73
2022/02/24 07:42:28;;;;;;;3.95;2.00;;;;;;;4.31;74.87;98461.06;4186697;28;20349;-73
2022/02/24 07:44:29;;;;;;;8.10;2.75;;;;;;;4.34;75.16;98451.38;4187063;28;20052;-73
2022/02/24 07:46:30;;;;;;;5.63;2.13;;;;;;;4.41;74.50;98452.44;4186644;28;20052;-73
2022/02/24 07:48:30;;;;;;;5.13;2.65;;;;;;;4.43;74.55;98457.56;4189404;28;20038;-73
2022/02/24 07:50:31;;;;;;;6.47;2.30;;;;;;;4.43;74.60;98460.31;4202186;28;20042;-73
2022/02/24 07:52:31;;;;;;;4.10;2.10;;;;;;;4.50;74.00;98447.66;4201870;28;20040;-73
2022/02/24 07:54:32;;;;;;;3.08;2.13;;;;;;;4.56;74.70;98458.41;4202008;28;20238;-73
2022/02/24 07:56:32;;;;;;;7.32;2.38;;;;;;;4.62;74.42;98459.78;4200166;28;20076;-73
2022/02/24 07:58:32;;;;;;;3.90;1.83;;;;;;;4.69;73.61;98447.13;4186820;28;20540;-73
2022/02/24 08:00:33;;;;;;;6.03;1.88;;;;;;;4.74;73.93;98449.66;4186697;28;20062;-73
2022/02/24 08:02:34;;;;;;;3.63;1.83;;;;;;;4.77;73.66;98438.00;4185856;28;20083;-73
2022/02/24 08:04:34;;;;;;;4.60;2.10;;;;;;;4.78;73.77;98449.75;4187025;28;20052;-73
2022/02/24 08:06:35;;;;;;;4.93;2.35;;;;;;;4.80;73.41;98447.50;4186409;28;20469;-73
2022/02/24 08:08:35;;;;;;;6.30;2.20;;;;;;;4.86;73.04;98451.59;4197890;28;20037;-73
2022/02/24 08:10:36;;;;;;;9.07;2.17;;;;;;;4.90;73.00;98449.00;4187642;28;20119;-73
2022/02/24 08:12:39;;;;;;;4.38;2.00;;;;;;;4.97;72.65;98450.03;4186772;28;20569;-73
2022/02/24 08:14:39;;;;;;;2.75;1.80;;;;;;;5.07;72.57;98441.34;4188386;28;20032;-73
2022/02/24 08:16:40;;;;;;;7.43;2.22;;;;;;;5.10;73.14;98439.06;4198189;28;20059;-73
2022/02/24 08:18:40;;;;;;;5.53;2.92;;;;;;;5.14;72.28;98432.56;4189643;28;20502;-73
2022/02/24 08:20:40;;;;;;;4.13;1.98;;;;;;;5.13;72.35;98430.13;4200961;28;20184;-73
2022/02/24 08:22:45;;;;;;;2.92;1.88;;;;;;;5.11;72.21;98429.69;4191776;28;20052;-73
2022/02/24 08:24:46;;;;;;;2.55;1.98;;;;;;;5.06;72.74;98434.25;4186395;28;20492;-73
2022/02/24 08:26:46;;;;;;;2.80;1.85;;;;;;;5.15;72.54;98425.91;4187321;28;20036;-73
2022/02/24 08:28:48;;;;;;;5.47;2.28;;;;;;;5.22;71.95;98420.66;4202072;28;20036;-73
2022/02/24 08:30:49;;;;;;;5.15;2.33;;;;;;;5.23;72.25;98416.78;4201910;28;20040;-73
2022/02/24 08:32:50;;;;;;;3.03;1.90;;;;;;;5.22;72.57;98412.44;4200872;28;20039;-73
2022/02/24 08:34:51;;;;;;;5.33;2.80;;;;;;;5.28;72.82;98405.56;4201524;28;20052;-73
2022/02/24 08:36:52;;;;;;;5.38;2.15;;;;;;;5.33;72.55;98401.78;4185394;28;20298;-73
2022/02/24 08:38:52;;;;;;;3.50;1.90;;;;;;;5.32;72.71;98402.94;4189177;28;20055;-73
2022/02/24 08:40:52;;;;;;;2.63;1.90;;;;;;;5.34;72.74;98397.91;4186523;28;20365;-73
2022/02/24 08:42:52;;;;;;;4.35;2.38;;;;;;;5.33;72.03;98394.34;4186050;28;20097;-73
2022/02/24 08:44:53;;;;;;;5.25;2.20;;;;;;;5.43;70.89;98390.31;4188935;28;20040;-73
2022/02/24 08:46:54;;;;;;;2.72;2.10;;;;;;;5.53;70.92;98397.28;4199968;28;20036;-73
2022/02/24 08:48:54;;;;;;;4.25;2.45;;;;;;;5.57;71.77;98387.22;4201490;28;20032;-73
2022/02/24 08:50:54;;;;;;;5.07;2.03;;;;;;;5.53;72.05;98389.03;4192342;28;20515;-73
2022/02/24 08:52:56;;;;;;;5.82;2.42;;;;;;;5.53;71.55;98389.03;4186555;28;20120;-73
2022/02/24 08:54:56;;;;;;;3.45;1.90;;;;;;;5.48;71.93;98381.06;4189978;28;20040;-73
2022/02/24 08:56:56;;;;;;;4.45;1.98;;;;;;;5.50;71.49;98387.00;4188550;28;20045;-73
2022/02/24 08:58:57;;;;;;;4.38;2.08;;;;;;;5.37;71.29;98372.50;4189467;28;20436;-73
2022/02/24 09:00:57;;;;;;;5.20;2.30;;;;;;;5.34;71.63;98367.72;4191585;28;20268;-73
2022/02/24 09:02:58;;;;;;;2.83;2.08;;;;;;;5.25;71.91;98370.59;4189450;28;20071;-73
2022/02/24 09:04:58;;;;;;;3.85;2.45;;;;;;;5.26;72.62;98354.94;4189468;28;20048;-73
2022/02/24 09:06:58;;;;;;;2.55;2.00;;;;;;;5.29;72.32;98354.22;4188377;28;20136;-73
2022/02/24 09:08:59;;;;;;;5.05;2.38;;;;;;;5.29;72.94;98360.50;4198449;28;20041;-73
2022/02/24 09:10:59;;;;;;;2.83;2.38;;;;;;;5.35;72.85;98348.16;4192294;28;20120;-73
2022/02/24 09:13:00;;;;;;;13.05;3.15;;;;;;;5.35;72.28;98353.66;4189047;28;20076;-73
2022/02/24 09:15:00;;;;;;;4.55;3.25;;;;;;;5.38;72.32;98349.44;4189576;28;20624;-73
2022/02/24 09:17:02;;;;;;;5.38;2.20;;;;;;;5.38;72.96;98346.69;4188207;28;20059;-73
2022/02/24 09:19:03;;;;;;;4.90;2.53;;;;;;;5.49;72.27;98344.25;4189081;28;20157;-73
2022/02/24 09:21:04;;;;;;;5.47;2.08;;;;;;;5.54;71.76;98346.72;4188795;28;20088;-73
2022/02/24 09:23:04;;;;;;;6.53;2.25;;;;;;;5.60;70.99;98339.84;4188190;28;20032;-73
2022/02/24 09:25:06;;;;;;;4.38;1.80;;;;;;;5.64;71.67;98346.25;4194877;28;20148;-73
2022/02/24 09:27:07;;;;;;;3.67;2.00;;;;;;;5.69;71.36;98346.00;4202343;28;20047;-73
2022/02/24 09:29:07;;;;;;;4.38;2.33;;;;;;;5.71;71.12;98345.63;4205000;28;20650;-73
2022/02/24 09:31:08;;;;;;;4.18;2.30;;;;;;;5.66;71.41;98332.97;4190445;28;20046;-73
2022/02/24 09:33:09;;;;;;;8.95;2.50;;;;;;;5.64;71.43;98330.59;4188919;28;20037;-73